Time;durP1;ratioP1;P1;durP2;ratioP2;P2;SDS_P1;SDS_P2;PMS_P1;PMS_P2;Temp;Humidity;BMP_temperature;BMP_pressure;BME280_temperature;BME280_humidity;BME280_pressure;Samples;Min_cycle;Max_cycle;Signal;HPM_P1;HPM_P2
2021/08/26 00:00:00;;;;;;;22.73;14.13;;;;;;;;;;5016170;28;20028;-53
2021/08/26 00:08:02;;;;;;;29.17;17.70;;;;;;;;;;5016186;28;20049;-46
2021/08/26 00:10:30;;;;;;;19.52;13.20;;;;;;;;;;5015721;28;20403;-48
2021/08/26 00:12:59;;;;;;;17.05;10.32;;;;;;;;;;5015968;28;20457;-46
2021/08/26 00:15:25;;;;;;;10.73;8.40;;;;;;;;;;5015709;28;20026;-47
2021/08/26 00:17:51;;;;;;;19.05;12.88;;;;;;;;;;5015799;28;20037;-46
2021/08/26 00:20:19;;;;;;;30.00;18.73;;;;;;;;;;5015870;28;20026;-47
2021/08/26 00:22:45;;;;;;;12.63;8.48;;;;;;;;;;5015732;28;20080;-48
2021/08/26 00:25:11;;;;;;;39.65;19.67;;;;;;;;;;5015693;28;20053;-48
2021/08/26 00:27:37;;;;;;;55.05;29.38;;;;;;;;;;5015652;28;20032;-47
2021/08/26 00:30:04;;;;;;;15.13;10.38;;;;;;;;;;5015611;28;20084;-48
2021/08/26 00:32:30;;;;;;;12.95;7.25;;;;;;;;;;5015678;28;20030;-47
2021/08/26 00:34:58;;;;;;;10.88;7.95;;;;;;;;;;5014492;28;20026;-46
2021/08/26 00:37:24;;;;;;;14.95;10.13;;;;;;;;;;5015423;28;20049;-45
2021/08/26 00:39:50;;;;;;;73.22;38.38;;;;;;;;;;5015407;28;20068;-46
2021/08/26 00:42:17;;;;;;;16.98;10.13;;;;;;;;;;5015398;28;20030;-46
2021/08/26 00:44:43;;;;;;;65.07;32.28;;;;;;;;;;5015232;28;20104;-47
2021/08/26 00:47:09;;;;;;;37.83;19.88;;;;;;;;;;5015287;28;20030;-47
2021/08/26 00:49:35;;;;;;;27.27;16.25;;;;;;;;;;5015425;28;20030;-47
2021/08/26 00:52:01;;;;;;;23.17;12.60;;;;;;;;;;5015229;28;20022;-47
2021/08/26 00:54:28;;;;;;;28.33;14.75;;;;;;;;;;5015190;28;20030;-47
2021/08/26 00:56:56;;;;;;;30.25;16.05;;;;;;;;;;5015128;28;20037;-46
2021/08/26 00:59:22;;;;;;;21.42;12.55;;;;;;;;;;5014984;28;20079;-47
2021/08/26 01:01:52;;;;;;;12.65;8.02;;;;;;;;;;5014994;28;20014;-46
2021/08/26 01:04:27;;;;;;;13.93;8.73;;;;;;;;;;5015045;28;20025;-46
2021/08/26 01:06:56;;;;;;;15.80;8.73;;;;;;;;;;5015055;28;20037;-46
2021/08/26 01:09:27;;;;;;;17.38;12.20;;;;;;;;;;5014849;28;20048;-46
2021/08/26 01:11:54;;;;;;;34.88;19.65;;;;;;;;;;5014788;28;20038;-46
2021/08/26 01:14:20;;;;;;;36.22;16.80;;;;;;;;;;5014836;28;20530;-46
2021/08/26 01:16:46;;;;;;;48.50;24.92;;;;;;;;;;5014736;28;20505;-46
2021/08/26 01:19:12;;;;;;;22.30;10.88;;;;;;;;;;5014915;28;20018;-47
2021/08/26 01:21:38;;;;;;;23.17;7.95;;;;;;;;;;5014747;28;20018;-47
2021/08/26 01:24:06;;;;;;;21.85;13.43;;;;;;;;;;5014605;28;20116;-47
2021/08/26 01:26:51;;;;;;;29.45;18.17;;;;;;;;;;5014477;28;20025;-47
2021/08/26 01:29:17;;;;;;;15.65;9.23;;;;;;;;;;5014684;28;20367;-47
2021/08/26 01:31:44;;;;;;;16.88;10.23;;;;;;;;;;5013115;28;20448;-46
2021/08/26 01:34:11;;;;;;;32.55;20.40;;;;;;;;;;5014343;28;20025;-47
2021/08/26 01:36:37;;;;;;;28.52;18.38;;;;;;;;;;5014356;28;20022;-45
2021/08/26 01:39:04;;;;;;;27.75;16.17;;;;;;;;;;5014282;28;20041;-47
2021/08/26 01:41:50;;;;;;;50.63;28.63;;;;;;;;;;5014546;28;20099;-47
2021/08/26 01:44:21;;;;;;;32.42;19.98;;;;;;;;;;5014456;28;20152;-48
2021/08/26 01:46:48;;;;;;;20.40;12.70;;;;;;;;;;5013938;28;20026;-45
2021/08/26 01:49:14;;;;;;;25.83;12.95;;;;;;;;;;5014109;28;20037;-48
2021/08/26 01:51:40;;;;;;;25.13;12.57;;;;;;;;;;5014162;28;20034;-45
2021/08/26 01:54:09;;;;;;;19.17;10.60;;;;;;;;;;5014071;28;20489;-44
2021/08/26 01:56:36;;;;;;;15.80;10.45;;;;;;;;;;5014126;28;20498;-48
2021/08/26 01:59:02;;;;;;;12.32;7.05;;;;;;;;;;5014164;28;20060;-47
2021/08/26 02:01:28;;;;;;;12.70;8.13;;;;;;;;;;5013958;28;20029;-47
2021/08/26 02:03:55;;;;;;;9.32;6.72;;;;;;;;;;5014017;28;20066;-47
2021/08/26 02:06:21;;;;;;;11.40;7.00;;;;;;;;;;5013864;28;20036;-47
2021/08/26 02:08:47;;;;;;;10.30;7.25;;;;;;;;;;5013520;28;20018;-47
2021/08/26 02:11:13;;;;;;;8.70;6.05;;;;;;;;;;5014159;28;20034;-48
2021/08/26 02:13:40;;;;;;;11.38;6.82;;;;;;;;;;5013845;28;20101;-47
2021/08/26 02:16:06;;;;;;;8.75;5.95;;;;;;;;;;5013875;28;20105;-47
2021/08/26 02:18:32;;;;;;;10.85;6.65;;;;;;;;;;5013738;28;20040;-47
2021/08/26 02:20:59;;;;;;;10.90;6.13;;;;;;;;;;5013783;28;20054;-48
2021/08/26 02:23:25;;;;;;;8.07;5.70;;;;;;;;;;5012547;28;20116;-48
2021/08/26 02:25:53;;;;;;;12.73;5.95;;;;;;;;;;5013718;28;20033;-46
2021/08/26 02:28:19;;;;;;;8.68;5.53;;;;;;;;;;5013875;28;20025;-47
2021/08/26 02:30:46;;;;;;;9.50;5.88;;;;;;;;;;5013662;28;20033;-48
2021/08/26 02:33:12;;;;;;;8.68;5.50;;;;;;;;;;5013683;28;20474;-48
2021/08/26 02:35:38;;;;;;;8.43;5.40;;;;;;;;;;5013701;28;20091;-48
2021/08/26 02:38:04;;;;;;;9.02;5.60;;;;;;;;;;5013493;28;20038;-47
2021/08/26 02:40:31;;;;;;;9.23;5.65;;;;;;;;;;5013645;28;20030;-47
2021/08/26 02:42:57;;;;;;;10.00;5.70;;;;;;;;;;5013551;28;20033;-47
2021/08/26 02:45:23;;;;;;;7.72;5.00;;;;;;;;;;5013747;28;20026;-47
2021/08/26 02:47:49;;;;;;;14.00;5.00;;;;;;;;;;5013455;28;20033;-47
2021/08/26 02:50:15;;;;;;;8.00;5.07;;;;;;;;;;5013488;28;20037;-47
2021/08/26 02:52:41;;;;;;;8.63;5.05;;;;;;;;;;5013363;28;20049;-48
2021/08/26 02:55:07;;;;;;;10.38;5.32;;;;;;;;;;5013709;28;20022;-47
2021/08/26 02:57:33;;;;;;;7.90;5.15;;;;;;;;;;5014269;28;20034;-47
2021/08/26 03:00:00;;;;;;;9.02;4.95;;;;;;;;;;5017778;28;20617;-48
2021/08/26 03:02:26;;;;;;;10.38;5.10;;;;;;;;;;5017330;28;20022;-46
2021/08/26 03:04:52;;;;;;;10.80;5.65;;;;;;;;;;5017399;28;20105;-47
2021/08/26 03:07:18;;;;;;;10.55;4.88;;;;;;;;;;5017257;28;20022;-47
2021/08/26 03:09:44;;;;;;;8.90;5.75;;;;;;;;;;5017246;28;20058;-47
2021/08/26 03:12:10;;;;;;;8.77;5.47;;;;;;;;;;5017300;28;20030;-47
2021/08/26 03:14:36;;;;;;;8.95;5.15;;;;;;;;;;5017105;28;20109;-47
2021/08/26 03:17:02;;;;;;;8.93;5.45;;;;;;;;;;5016897;28;20033;-48
2021/08/26 03:19:28;;;;;;;7.32;5.47;;;;;;;;;;5017009;28;20109;-47
2021/08/26 03:21:57;;;;;;;8.18;5.85;;;;;;;;;;5016899;28;20108;-47
2021/08/26 03:24:23;;;;;;;8.02;5.68;;;;;;;;;;5016821;28;20069;-47
2021/08/26 03:26:49;;;;;;;11.88;5.22;;;;;;;;;;5016958;28;20073;-46
2021/08/26 03:29:15;;;;;;;5.85;4.75;;;;;;;;;;5016847;28;20080;-47
2021/08/26 03:31:43;;;;;;;8.52;5.05;;;;;;;;;;5016828;28;20036;-46
2021/08/26 03:34:09;;;;;;;8.30;5.15;;;;;;;;;;5016923;28;20045;-48
2021/08/26 03:36:35;;;;;;;8.95;5.25;;;;;;;;;;5017150;28;20557;-47
2021/08/26 03:39:01;;;;;;;10.18;5.60;;;;;;;;;;5016828;28;20038;-48
2021/08/26 03:41:27;;;;;;;7.65;5.78;;;;;;;;;;5016507;28;20080;-47
2021/08/26 03:43:56;;;;;;;9.27;5.75;;;;;;;;;;5016793;28;20033;-47
2021/08/26 03:46:22;;;;;;;7.38;5.40;;;;;;;;;;5016673;28;20036;-46
2021/08/26 03:48:48;;;;;;;9.15;5.50;;;;;;;;;;5016483;28;20030;-46
2021/08/26 03:51:14;;;;;;;12.80;5.43;;;;;;;;;;5016361;28;20516;-47
2021/08/26 03:53:40;;;;;;;14.88;5.72;;;;;;;;;;5016622;28;20026;-46
2021/08/26 03:56:06;;;;;;;8.50;5.38;;;;;;;;;;5016510;28;20026;-47
2021/08/26 03:58:33;;;;;;;8.15;5.35;;;;;;;;;;5016246;28;20034;-47
2021/08/26 04:01:02;;;;;;;7.80;5.80;;;;;;;;;;5016207;28;20022;-47
2021/08/26 04:03:28;;;;;;;11.10;5.70;;;;;;;;;;5016273;28;20033;-47
2021/08/26 04:05:54;;;;;;;11.02;4.93;;;;;;;;;;5016199;28;20108;-46
2021/08/26 04:08:20;;;;;;;8.80;5.00;;;;;;;;;;5015841;28;20041;-47
2021/08/26 04:10:46;;;;;;;11.07;5.63;;;;;;;;;;5015895;28;20137;-46
2021/08/26 04:13:12;;;;;;;12.93;5.47;;;;;;;;;;5016003;28;20026;-47
2021/08/26 04:15:39;;;;;;;8.88;5.78;;;;;;;;;;5015880;28;20488;-46
2021/08/26 04:18:05;;;;;;;9.35;4.78;;;;;;;;;;5015851;28;20038;-47
2021/08/26 04:20:31;;;;;;;12.95;5.25;;;;;;;;;;5015844;28;20105;-47
2021/08/26 04:22:57;;;;;;;5.05;3.78;;;;;;;;;;5015922;28;20022;-47
2021/08/26 04:25:23;;;;;;;3.22;2.85;;;;;;;;;;5015756;28;20458;-48
2021/08/26 04:27:49;;;;;;;2.75;2.50;;;;;;;;;;5015906;28;20036;-53
2021/08/26 04:30:15;;;;;;;3.83;2.60;;;;;;;;;;5015906;28;20060;-51
2021/08/26 04:32:41;;;;;;;2.60;2.40;;;;;;;;;;5015895;28;20475;-47
2021/08/26 04:35:08;;;;;;;6.95;4.30;;;;;;;;;;5015633;28;20030;-50
2021/08/26 04:37:34;;;;;;;44.90;24.58;;;;;;;;;;5015839;28;20038;-47
2021/08/26 04:40:00;;;;;;;18.85;10.98;;;;;;;;;;5015872;28;20037;-47
2021/08/26 04:42:26;;;;;;;27.52;12.25;;;;;;;;;;5015667;28;20034;-47
2021/08/26 04:44:52;;;;;;;25.42;12.52;;;;;;;;;;5015527;28;20018;-47
2021/08/26 04:47:18;;;;;;;17.58;9.73;;;;;;;;;;5015695;28;20422;-47
2021/08/26 04:49:47;;;;;;;19.98;10.80;;;;;;;;;;5015403;28;20026;-47
2021/08/26 04:52:13;;;;;;;22.63;12.73;;;;;;;;;;5015426;28;20379;-50
2021/08/26 04:54:39;;;;;;;20.23;10.88;;;;;;;;;;5015259;28;20063;-48
2021/08/26 04:57:05;;;;;;;12.95;7.05;;;;;;;;;;5015257;28;20092;-46
2021/08/26 04:59:31;;;;;;;22.67;13.80;;;;;;;;;;5015144;28;20038;-48
2021/08/26 05:02:00;;;;;;;22.95;12.23;;;;;;;;;;5015153;28;20504;-49
2021/08/26 05:04:26;;;;;;;31.38;17.33;;;;;;;;;;5015169;28;20469;-48
2021/08/26 05:06:52;;;;;;;13.98;6.82;;;;;;;;;;5014894;28;20474;-48
2021/08/26 05:09:19;;;;;;;39.33;20.48;;;;;;;;;;5014401;28;20129;-48
2021/08/26 05:11:45;;;;;;;15.35;7.53;;;;;;;;;;5014835;28;20061;-48
2021/08/26 05:14:11;;;;;;;19.88;10.25;;;;;;;;;;5014795;28;20026;-49
2021/08/26 05:16:37;;;;;;;21.60;10.30;;;;;;;;;;5014664;28;20410;-48
2021/08/26 05:19:03;;;;;;;16.70;7.70;;;;;;;;;;5014569;28;20045;-46
2021/08/26 05:21:29;;;;;;;20.30;11.65;;;;;;;;;;5014190;28;20026;-47
2021/08/26 05:23:55;;;;;;;31.67;16.65;;;;;;;;;;5014289;28;20068;-47
2021/08/26 05:26:22;;;;;;;14.95;9.90;;;;;;;;;;5014569;28;20079;-47
2021/08/26 05:28:49;;;;;;;34.35;15.93;;;;;;;;;;5014410;28;20095;-47
2021/08/26 05:31:16;;;;;;;21.90;13.38;;;;;;;;;;5014496;28;20496;-46
2021/08/26 05:33:42;;;;;;;16.65;11.30;;;;;;;;;;5014293;28;20037;-47
2021/08/26 05:36:08;;;;;;;20.25;8.82;;;;;;;;;;5014371;28;20467;-45
2021/08/26 05:38:36;;;;;;;29.50;16.30;;;;;;;;;;5014040;28;20069;-44
2021/08/26 05:41:02;;;;;;;16.63;7.75;;;;;;;;;;5014168;28;20514;-45
2021/08/26 05:43:28;;;;;;;17.25;11.40;;;;;;;;;;5014357;28;20037;-45
2021/08/26 05:45:54;;;;;;;23.35;12.60;;;;;;;;;;5014097;28;20497;-46
2021/08/26 05:48:20;;;;;;;14.85;8.32;;;;;;;;;;5013991;28;20095;-50
2021/08/26 05:50:46;;;;;;;7.93;5.03;;;;;;;;;;5014001;28;20097;-47
2021/08/26 05:53:13;;;;;;;9.35;6.60;;;;;;;;;;5013903;28;20030;-47
2021/08/26 05:55:39;;;;;;;8.93;5.10;;;;;;;;;;5014044;28;20374;-45
2021/08/26 05:58:05;;;;;;;10.32;5.47;;;;;;;;;;5014038;28;20038;-44
2021/08/26 06:00:31;;;;;;;9.07;6.45;;;;;;;;;;5014027;28;20433;-46
2021/08/26 06:02:57;;;;;;;10.93;4.90;;;;;;;;;;5013956;28;20022;-46
2021/08/26 06:05:23;;;;;;;11.45;6.50;;;;;;;;;;5014026;28;20476;-43
2021/08/26 06:07:49;;;;;;;10.68;5.90;;;;;;;;;;5013847;28;20026;-47
2021/08/26 06:10:15;;;;;;;12.55;7.05;;;;;;;;;;5013626;28;20053;-47
2021/08/26 06:12:42;;;;;;;13.10;7.75;;;;;;;;;;5014054;28;20041;-47
2021/08/26 06:15:09;;;;;;;22.55;14.02;;;;;;;;;;5014052;28;20030;-47
2021/08/26 06:17:35;;;;;;;14.05;8.88;;;;;;;;;;5013739;28;20029;-47
2021/08/26 06:20:08;;;;;;;13.27;8.38;;;;;;;;;;5013745;28;20105;-48
2021/08/26 06:22:34;;;;;;;13.27;7.78;;;;;;;;;;5012435;28;20045;-47
2021/08/26 06:25:00;;;;;;;16.58;8.38;;;;;;;;;;5013899;28;20025;-47
2021/08/26 06:27:26;;;;;;;15.52;6.20;;;;;;;;;;5014004;28;20421;-47
2021/08/26 06:29:52;;;;;;;8.75;6.00;;;;;;;;;;5013700;28;20064;-47
2021/08/26 06:32:18;;;;;;;11.95;7.07;;;;;;;;;;5012820;28;20080;-48
2021/08/26 06:34:45;;;;;;;11.00;6.30;;;;;;;;;;5013911;28;20072;-48
2021/08/26 06:37:11;;;;;;;10.43;6.45;;;;;;;;;;5013509;28;20069;-48
2021/08/26 06:39:37;;;;;;;16.85;6.32;;;;;;;;;;5013738;28;20042;-48
2021/08/26 06:42:03;;;;;;;11.30;7.32;;;;;;;;;;5013637;28;20493;-48
2021/08/26 06:44:32;;;;;;;11.65;6.50;;;;;;;;;;5013621;28;20069;-48
2021/08/26 06:46:58;;;;;;;10.32;6.07;;;;;;;;;;5013535;28;20141;-47
2021/08/26 06:49:24;;;;;;;8.60;5.60;;;;;;;;;;5013396;28;20018;-48
2021/08/26 06:51:50;;;;;;;10.40;5.65;;;;;;;;;;5013648;28;20057;-48
2021/08/26 06:54:17;;;;;;;11.18;6.60;;;;;;;;;;5013314;28;20033;-48
2021/08/26 06:56:43;;;;;;;17.17;7.20;;;;;;;;;;5013490;28;20097;-48
2021/08/26 06:59:09;;;;;;;11.23;6.13;;;;;;;;;;5013346;28;20034;-48
2021/08/26 07:01:35;;;;;;;12.70;6.93;;;;;;;;;;5013383;28;20030;-48
2021/08/26 07:04:01;;;;;;;12.32;6.13;;;;;;;;;;5013263;28;20101;-48
2021/08/26 07:06:28;;;;;;;15.98;7.18;;;;;;;;;;5013230;28;20386;-47
2021/08/26 07:08:54;;;;;;;13.55;7.15;;;;;;;;;;5012965;28;20121;-48
2021/08/26 07:11:21;;;;;;;13.02;7.57;;;;;;;;;;5013303;28;20109;-47
2021/08/26 07:13:47;;;;;;;13.57;7.43;;;;;;;;;;5013212;28;20018;-50
2021/08/26 07:16:13;;;;;;;13.55;7.28;;;;;;;;;;5013258;28;20393;-48
2021/08/26 07:18:39;;;;;;;11.63;7.18;;;;;;;;;;5013191;28;20045;-48
2021/08/26 07:21:05;;;;;;;11.85;7.55;;;;;;;;;;5013142;28;20049;-48
2021/08/26 07:23:31;;;;;;;13.95;7.18;;;;;;;;;;5013033;28;20022;-48
2021/08/26 07:25:58;;;;;;;10.52;6.72;;;;;;;;;;5013124;28;20026;-48
2021/08/26 07:28:24;;;;;;;12.52;7.35;;;;;;;;;;5013063;28;20552;-48
2021/08/26 07:30:50;;;;;;;18.30;8.13;;;;;;;;;;5013005;28;20025;-48
2021/08/26 07:33:17;;;;;;;12.43;7.38;;;;;;;;;;5013092;28;20026;-48
2021/08/26 07:35:43;;;;;;;11.73;6.82;;;;;;;;;;5013111;28;20042;-50
2021/08/26 07:38:09;;;;;;;11.25;6.68;;;;;;;;;;5012728;28;20070;-50
2021/08/26 07:40:37;;;;;;;12.18;6.32;;;;;;;;;;5013009;28;20022;-50
2021/08/26 07:43:03;;;;;;;11.63;6.30;;;;;;;;;;5013011;28;20058;-50
2021/08/26 07:45:30;;;;;;;10.73;6.90;;;;;;;;;;5016644;28;20431;-49
2021/08/26 07:47:56;;;;;;;13.25;6.60;;;;;;;;;;5016631;28;20030;-49
2021/08/26 07:50:22;;;;;;;10.82;7.03;;;;;;;;;;5016447;28;20021;-50
2021/08/26 07:52:48;;;;;;;10.45;6.50;;;;;;;;;;5015151;28;20034;-49
2021/08/26 07:55:14;;;;;;;12.95;6.22;;;;;;;;;;5016520;28;20089;-49
2021/08/26 07:57:40;;;;;;;22.48;7.25;;;;;;;;;;5016349;28;20478;-49
2021/08/26 08:00:09;;;;;;;11.10;6.43;;;;;;;;;;5016346;28;20030;-49
2021/08/26 08:02:35;;;;;;;13.10;6.78;;;;;;;;;;5016267;28;20026;-49
2021/08/26 08:05:01;;;;;;;13.52;6.72;;;;;;;;;;5016209;28;20113;-50
2021/08/26 08:07:27;;;;;;;12.30;6.90;;;;;;;;;;5016211;28;20368;-50
2021/08/26 08:09:54;;;;;;;10.63;6.70;;;;;;;;;;5015444;28;20054;-49
2021/08/26 08:12:22;;;;;;;14.90;7.43;;;;;;;;;;5016113;28;20034;-49
2021/08/26 08:14:48;;;;;;;15.90;8.07;;;;;;;;;;5016125;28;20037;-51
2021/08/26 08:17:16;;;;;;;21.73;12.77;;;;;;;;;;5015863;28;20052;-50
2021/08/26 08:19:42;;;;;;;18.88;11.55;;;;;;;;;;5015811;28;20056;-50
2021/08/26 08:22:11;;;;;;;11.00;6.32;;;;;;;;;;5014029;28;20029;-52
2021/08/26 08:24:40;;;;;;;28.83;15.13;;;;;;;;;;4995530;28;20395;-49
2021/08/26 08:27:06;;;;;;;19.50;7.85;;;;;;;;;;4993357;28;20062;-50
2021/08/26 08:29:32;;;;;;;29.48;15.60;;;;;;;;;;4995767;28;20026;-49
2021/08/26 08:31:58;;;;;;;14.10;8.23;;;;;;;;;;4995484;28;20495;-49
2021/08/26 08:34:24;;;;;;;185.90;12.60;;;;;;;;;;4992857;28;20023;-45
2021/08/26 08:36:50;;;;;;;15.95;7.57;;;;;;;;;;4995500;28;20014;-47
2021/08/26 08:39:16;;;;;;;12.38;7.13;;;;;;;;;;4995161;28;20037;-47
2021/08/26 08:41:45;;;;;;;22.20;11.00;;;;;;;;;;4995544;28;20034;-47
2021/08/26 08:44:11;;;;;;;29.55;15.00;;;;;;;;;;4995851;28;20034;-46
2021/08/26 08:46:37;;;;;;;30.88;15.60;;;;;;;;;;4995923;28;20248;-47
2021/08/26 08:49:04;;;;;;;24.52;10.55;;;;;;;;;;4995623;28;20088;-47
2021/08/26 08:51:33;;;;;;;14.75;7.25;;;;;;;;;;4995882;28;20096;-47
2021/08/26 08:53:59;;;;;;;18.70;7.72;;;;;;;;;;4995500;28;20032;-51
2021/08/26 08:56:28;;;;;;;14.00;6.25;;;;;;;;;;4994237;28;20030;-47
2021/08/26 08:59:00;;;;;;;33.50;17.75;;;;;;;;;;4995152;28;20056;-45
2021/08/26 09:01:27;;;;;;;41.28;28.52;;;;;;;;;;4995049;28;20022;-46
2021/08/26 09:03:53;;;;;;;19.00;10.27;;;;;;;;;;4994202;28;20483;-46
2021/08/26 09:06:19;;;;;;;93.88;53.58;;;;;;;;;;4992123;28;20403;-45
2021/08/26 09:09:00;;;;;;;59.45;33.05;;;;;;;;;;4992238;28;20485;-46
2021/08/26 09:11:27;;;;;;;40.42;21.50;;;;;;;;;;4993845;28;20479;-45
2021/08/26 09:13:54;;;;;;;25.52;14.70;;;;;;;;;;4993924;28;20073;-45
2021/08/26 09:16:34;;;;;;;13.82;8.30;;;;;;;;;;4993714;28;20080;-47
2021/08/26 09:19:16;;;;;;;11.45;7.97;;;;;;;;;;4993557;28;20026;-48
2021/08/26 09:21:42;;;;;;;9.50;6.15;;;;;;;;;;4993254;28;20049;-45
2021/08/26 09:24:08;;;;;;;13.95;8.70;;;;;;;;;;4993488;28;20153;-46
2021/08/26 09:26:34;;;;;;;10.45;6.30;;;;;;;;;;4993470;28;20027;-46
2021/08/26 09:29:02;;;;;;;12.90;6.65;;;;;;;;;;4993376;28;20105;-44
2021/08/26 09:31:28;;;;;;;12.25;7.97;;;;;;;;;;4993458;28;20537;-54
2021/08/26 09:34:00;;;;;;;9.77;5.82;;;;;;;;;;4993145;28;20030;-54
2021/08/26 09:36:28;;;;;;;10.38;6.50;;;;;;;;;;4993216;28;20026;-47
2021/08/26 09:38:56;;;;;;;11.73;6.88;;;;;;;;;;4992961;28;20112;-46
2021/08/26 09:41:39;;;;;;;19.75;12.15;;;;;;;;;;4993264;28;20161;-47
2021/08/26 09:44:08;;;;;;;16.90;8.85;;;;;;;;;;4993027;28;20023;-46
2021/08/26 09:46:35;;;;;;;21.75;10.43;;;;;;;;;;4993078;28;20030;-46
2021/08/26 09:49:02;;;;;;;22.02;13.38;;;;;;;;;;4993146;28;20073;-45
2021/08/26 09:51:28;;;;;;;49.13;23.58;;;;;;;;;;4992933;28;20053;-47
2021/08/26 09:53:56;;;;;;;25.55;13.15;;;;;;;;;;4993170;28;20145;-46
2021/08/26 09:56:22;;;;;;;31.63;19.13;;;;;;;;;;4993018;28;20025;-46
2021/08/26 09:58:53;;;;;;;25.63;15.10;;;;;;;;;;4993050;28;20041;-45
2021/08/26 10:01:21;;;;;;;18.48;12.18;;;;;;;;;;4994120;28;20029;-45
2021/08/26 10:03:47;;;;;;;84.95;51.47;;;;;;;;;;4994008;28;20023;-45
2021/08/26 10:06:14;;;;;;;36.38;23.33;;;;;;;;;;4994037;28;20041;-45
2021/08/26 10:08:42;;;;;;;93.80;61.13;;;;;;;;;;4994044;28;20026;-46
2021/08/26 10:11:09;;;;;;;65.40;40.10;;;;;;;;;;4994130;28;20713;-46
2021/08/26 10:13:36;;;;;;;14.63;9.20;;;;;;;;;;4994069;28;20113;-45
2021/08/26 10:16:04;;;;;;;32.65;20.27;;;;;;;;;;4993875;28;20018;-42
2021/08/26 10:18:31;;;;;;;23.60;12.98;;;;;;;;;;4993750;28;20038;-50
2021/08/26 10:20:57;;;;;;;13.95;7.53;;;;;;;;;;4994023;28;20049;-47
2021/08/26 10:23:28;;;;;;;16.17;10.70;;;;;;;;;;4994108;28;20054;-47
2021/08/26 10:25:57;;;;;;;15.32;9.55;;;;;;;;;;4994028;28;20109;-48
2021/08/26 10:28:23;;;;;;;11.27;7.78;;;;;;;;;;4993890;28;20529;-50
2021/08/26 10:30:52;;;;;;;10.30;6.88;;;;;;;;;;4993926;28;20049;-47
2021/08/26 10:33:27;;;;;;;10.23;6.55;;;;;;;;;;4994028;28;20030;-47
2021/08/26 10:35:53;;;;;;;10.55;6.65;;;;;;;;;;4994011;28;20411;-48
2021/08/26 10:38:20;;;;;;;11.25;8.25;;;;;;;;;;4993830;28;20144;-46
2021/08/26 10:40:47;;;;;;;16.05;11.32;;;;;;;;;;4993932;28;20026;-47
2021/08/26 10:43:33;;;;;;;26.38;17.95;;;;;;;;;;4993740;28;20026;-47
2021/08/26 10:45:59;;;;;;;8.00;6.07;;;;;;;;;;4993953;28;20048;-47
2021/08/26 10:48:27;;;;;;;15.52;9.73;;;;;;;;;;4993676;28;20026;-47
2021/08/26 10:51:06;;;;;;;22.65;14.57;;;;;;;;;;4992398;28;20026;-48
2021/08/26 10:53:34;;;;;;;11.70;8.53;;;;;;;;;;4993685;28;20080;-48
2021/08/26 10:56:18;;;;;;;13.65;7.40;;;;;;;;;;4994137;28;20252;-48
2021/08/26 10:58:45;;;;;;;9.32;5.97;;;;;;;;;;4993953;28;20204;-49
2021/08/26 11:01:15;;;;;;;10.98;5.57;;;;;;;;;;4993810;28;20033;-49
2021/08/26 11:03:50;;;;;;;24.15;7.70;;;;;;;;;;4993733;28;20018;-48
2021/08/26 11:06:22;;;;;;;10.88;5.90;;;;;;;;;;4993648;28;20038;-49
2021/08/26 11:08:51;;;;;;;17.50;8.23;;;;;;;;;;4993390;28;20085;-49
2021/08/26 11:11:29;;;;;;;10.98;6.07;;;;;;;;;;4993836;28;20047;-51
2021/08/26 11:13:58;;;;;;;9.18;5.65;;;;;;;;;;4993731;28;20034;-51
2021/08/26 11:16:24;;;;;;;9.38;5.93;;;;;;;;;;4993742;28;20061;-49
2021/08/26 11:18:50;;;;;;;7.88;5.45;;;;;;;;;;4994853;28;20038;-50
2021/08/26 11:21:36;;;;;;;7.65;5.35;;;;;;;;;;4997543;28;20037;-49
2021/08/26 11:24:03;;;;;;;7.47;5.40;;;;;;;;;;4997439;28;20026;-49
2021/08/26 11:26:42;;;;;;;8.68;5.82;;;;;;;;;;4997518;28;20080;-49
2021/08/26 11:29:18;;;;;;;10.38;5.82;;;;;;;;;;4996317;28;20395;-49
2021/08/26 11:32:09;;;;;;;8.80;5.50;;;;;;;;;;4997439;28;20027;-49
2021/08/26 11:34:37;;;;;;;8.80;4.90;;;;;;;;;;4996801;28;20526;-49
2021/08/26 11:37:06;;;;;;;7.43;4.80;;;;;;;;;;4997135;28;20022;-49
2021/08/26 11:39:40;;;;;;;9.77;5.63;;;;;;;;;;4996893;28;20034;-49
2021/08/26 11:42:10;;;;;;;8.18;5.13;;;;;;;;;;4997046;28;20062;-49
2021/08/26 11:44:37;;;;;;;7.45;4.75;;;;;;;;;;4996989;28;20062;-50
2021/08/26 11:47:03;;;;;;;6.57;4.53;;;;;;;;;;4997192;28;20027;-49
2021/08/26 11:49:39;;;;;;;8.27;4.53;;;;;;;;;;4997000;28;20022;-49
2021/08/26 11:52:10;;;;;;;9.02;4.22;;;;;;;;;;4997090;28;20026;-49
2021/08/26 11:54:37;;;;;;;6.60;4.10;;;;;;;;;;4997111;28;20027;-50
2021/08/26 11:57:04;;;;;;;10.15;4.85;;;;;;;;;;4996780;28;20030;-50
2021/08/26 11:59:31;;;;;;;5.45;4.00;;;;;;;;;;4996735;28;20045;-49
2021/08/26 12:02:16;;;;;;;4.72;3.75;;;;;;;;;;4997149;28;20077;-48
2021/08/26 12:04:42;;;;;;;5.10;3.30;;;;;;;;;;4996765;28;20037;-49
2021/08/26 12:07:11;;;;;;;5.30;3.80;;;;;;;;;;4996630;28;20026;-49
2021/08/26 12:09:38;;;;;;;6.80;3.63;;;;;;;;;;4996568;28;20043;-49
2021/08/26 12:12:13;;;;;;;5.85;3.22;;;;;;;;;;4996684;28;20027;-49
2021/08/26 12:14:40;;;;;;;5.60;3.75;;;;;;;;;;4996673;28;20138;-49
2021/08/26 12:17:17;;;;;;;9.95;3.97;;;;;;;;;;4996851;28;20045;-49
2021/08/26 12:19:44;;;;;;;5.90;4.07;;;;;;;;;;4996146;28;20126;-49
2021/08/26 12:22:12;;;;;;;6.25;3.58;;;;;;;;;;4996425;28;20374;-49
2021/08/26 12:24:49;;;;;;;6.57;4.10;;;;;;;;;;4996406;28;20105;-49
2021/08/26 12:27:15;;;;;;;4.10;2.90;;;;;;;;;;4996312;28;20030;-49
2021/08/26 12:29:45;;;;;;;6.63;3.13;;;;;;;;;;4995434;28;20030;-49
2021/08/26 12:32:29;;;;;;;4.40;3.10;;;;;;;;;;4995781;28;20058;-49
2021/08/26 12:35:11;;;;;;;5.80;3.10;;;;;;;;;;4996341;28;20506;-49
2021/08/26 12:37:54;;;;;;;5.60;3.08;;;;;;;;;;4996176;28;20070;-49
2021/08/26 12:40:20;;;;;;;3.88;3.05;;;;;;;;;;4996074;28;20105;-49
2021/08/26 12:43:00;;;;;;;5.93;3.60;;;;;;;;;;4995881;28;20410;-49
2021/08/26 12:45:26;;;;;;;6.47;4.72;;;;;;;;;;4996184;28;20483;-47
2021/08/26 12:47:52;;;;;;;5.38;4.45;;;;;;;;;;4994955;28;20038;-50
2021/08/26 12:50:27;;;;;;;5.28;4.15;;;;;;;;;;4995876;28;20537;-50
2021/08/26 12:52:54;;;;;;;7.65;5.55;;;;;;;;;;4996117;28;20023;-50
2021/08/26 12:55:20;;;;;;;5.15;4.20;;;;;;;;;;4995613;28;20507;-50
2021/08/26 12:57:47;;;;;;;7.22;3.97;;;;;;;;;;4995942;28;20030;-50
2021/08/26 13:00:33;;;;;;;4.18;3.30;;;;;;;;;;4995622;28;20536;-50
2021/08/26 13:02:59;;;;;;;5.57;4.10;;;;;;;;;;4994892;28;20030;-50
2021/08/26 13:05:25;;;;;;;4.57;3.80;;;;;;;;;;4995083;28;20034;-50
2021/08/26 13:08:01;;;;;;;5.88;3.90;;;;;;;;;;4995541;28;20030;-49
2021/08/26 13:10:27;;;;;;;4.22;3.42;;;;;;;;;;4995224;28;20050;-50
2021/08/26 13:13:16;;;;;;;9.27;3.25;;;;;;;;;;4995484;28;20026;-50
2021/08/26 13:15:43;;;;;;;3.63;3.07;;;;;;;;;;4995319;28;20061;-50
2021/08/26 13:18:10;;;;;;;6.97;4.90;;;;;;;;;;4995302;28;20125;-49
2021/08/26 13:20:36;;;;;;;9.52;4.40;;;;;;;;;;4995203;28;20034;-49
2021/08/26 13:23:06;;;;;;;8.32;4.70;;;;;;;;;;4995352;28;20029;-48
2021/08/26 13:25:32;;;;;;;10.82;4.68;;;;;;;;;;4995470;28;20054;-50
2021/08/26 13:27:58;;;;;;;7.53;5.50;;;;;;;;;;4995429;28;20026;-50
2021/08/26 13:30:25;;;;;;;8.30;5.00;;;;;;;;;;4994964;28;20037;-51
2021/08/26 13:32:51;;;;;;;7.65;5.20;;;;;;;;;;4995049;28;20026;-51
2021/08/26 13:35:17;;;;;;;6.25;5.25;;;;;;;;;;4994934;28;20033;-49
2021/08/26 13:37:45;;;;;;;8.30;5.70;;;;;;;;;;4995115;28;20356;-48
2021/08/26 13:40:13;;;;;;;6.70;5.38;;;;;;;;;;4995020;28;20046;-49
2021/08/26 13:42:39;;;;;;;6.38;5.28;;;;;;;;;;4994552;28;20376;-50
2021/08/26 13:45:06;;;;;;;5.65;5.10;;;;;;;;;;4994881;28;20026;-50
2021/08/26 13:47:32;;;;;;;5.18;4.60;;;;;;;;;;4995030;28;20427;-48
2021/08/26 13:49:58;;;;;;;5.75;4.97;;;;;;;;;;4994595;28;20475;-50
2021/08/26 13:52:26;;;;;;;6.60;4.57;;;;;;;;;;4994899;28;20113;-49
2021/08/26 13:54:53;;;;;;;9.85;4.60;;;;;;;;;;4994853;28;20036;-48
2021/08/26 13:57:19;;;;;;;9.82;5.13;;;;;;;;;;4994976;28;20033;-49
2021/08/26 13:59:47;;;;;;;10.23;5.72;;;;;;;;;;4994699;28;20089;-50
2021/08/26 14:02:13;;;;;;;9.38;5.38;;;;;;;;;;4994710;28;20055;-49
2021/08/26 14:04:40;;;;;;;12.25;4.85;;;;;;;;;;4994231;28;20026;-50
2021/08/26 14:07:06;;;;;;;5.93;5.13;;;;;;;;;;4993995;28;20053;-49
2021/08/26 14:09:35;;;;;;;12.13;8.05;;;;;;;;;;4990901;28;20108;-47
2021/08/26 14:12:03;;;;;;;21.92;15.70;;;;;;;;;;4993569;28;20026;-48
2021/08/26 14:14:29;;;;;;;10.38;6.20;;;;;;;;;;4992535;28;20022;-47
2021/08/26 14:16:55;;;;;;;42.22;26.75;;;;;;;;;;4993753;28;20399;-48
2021/08/26 14:19:21;;;;;;;90.45;55.10;;;;;;;;;;4992835;28;20042;-47
2021/08/26 14:21:47;;;;;;;15.35;9.63;;;;;;;;;;4992012;28;20045;-47
2021/08/26 14:24:13;;;;;;;23.95;17.73;;;;;;;;;;4993623;28;20029;-47
2021/08/26 14:26:40;;;;;;;47.95;30.52;;;;;;;;;;4993431;28;20033;-48
2021/08/26 14:29:07;;;;;;;26.35;15.27;;;;;;;;;;4993758;28;20041;-46
2021/08/26 14:31:33;;;;;;;57.60;34.30;;;;;;;;;;4993958;28;20022;-48
2021/08/26 14:33:59;;;;;;;25.85;17.73;;;;;;;;;;4993904;28;20038;-47
2021/08/26 14:36:26;;;;;;;19.98;14.50;;;;;;;;;;4993917;28;20034;-48
2021/08/26 14:38:53;;;;;;;40.10;25.75;;;;;;;;;;4993940;28;20037;-48